Portada
METAR-TAF:

METAR-TAF

Aeroports :

Plataforma petroliera

K13-a, Països Baixos

latitud: 53-13-04N, longitud: 3-13-13E, altitud: 31 m

Observació

L'informe es va fer fa 11 minuts, a les 11:25 UTC
Vent 12 kt del Nord-Est
Temperatura 9°C
Humitat 87%
Pressió 1027 hPa

METAR: EHJR 091125Z AUTO 05012KT //// // ///////// 09/07 Q1027 RE// W09/H3

Hora: 13:36 (11:36 UTC)


TAF: manca

Observacions i pronòstics meteorològics de més de 4000 aeroports (METAR i TAF).

Les estacions disponibles són els punts grocs i vermells al mapa.

Posi el ratolí al punt desitjat per veure el nom de l'estació.

Feu clic per veure les observacions i els pronòstics meteorològics.

Per canviar el mapa: feu clic els botons verds amb una creu de color negre per apropar; al botó verd amb un guió per allunyar la imatge; o en les fletxes verdes per a mapes adjacents.


METAR-TAF: